sensor_id;sensor_type;location;lat;lon;timestamp;pressure;altitude;pressure_sealevel;temperature
68510;BMP180;55512;50.102;19.958;2023-03-04T00:01:31;98670.00;;;0.20
68510;BMP180;55512;50.102;19.958;2023-03-04T00:03:57;98667.20;;;0.20
68510;BMP180;55512;50.102;19.958;2023-03-04T00:06:22;98665.20;;;0.20
68510;BMP180;55512;50.102;19.958;2023-03-04T00:08:48;98656.20;;;0.24
68510;BMP180;55512;50.102;19.958;2023-03-04T00:11:13;98652.80;;;0.24
68510;BMP180;55512;50.102;19.958;2023-03-04T00:13:38;98649.80;;;0.30
68510;BMP180;55512;50.102;19.958;2023-03-04T00:16:04;98648.20;;;0.30
68510;BMP180;55512;50.102;19.958;2023-03-04T00:18:30;98640.20;;;0.30
68510;BMP180;55512;50.102;19.958;2023-03-04T00:20:55;98637.40;;;0.34
68510;BMP180;55512;50.102;19.958;2023-03-04T00:23:21;98633.80;;;0.30
68510;BMP180;55512;50.102;19.958;2023-03-04T00:25:46;98624.00;;;0.30
68510;BMP180;55512;50.102;19.958;2023-03-04T00:28:12;98626.60;;;0.20
68510;BMP180;55512;50.102;19.958;2023-03-04T00:30:37;98612.00;;;0.22
68510;BMP180;55512;50.102;19.958;2023-03-04T00:33:02;98609.60;;;0.26
68510;BMP180;55512;50.102;19.958;2023-03-04T00:35:28;98606.80;;;0.28
68510;BMP180;55512;50.102;19.958;2023-03-04T00:37:53;98608.80;;;0.30
68510;BMP180;55512;50.102;19.958;2023-03-04T00:40:19;98612.80;;;0.30
68510;BMP180;55512;50.102;19.958;2023-03-04T00:42:44;98605.60;;;0.30
68510;BMP180;55512;50.102;19.958;2023-03-04T00:45:10;98600.20;;;0.30
68510;BMP180;55512;50.102;19.958;2023-03-04T00:47:35;98589.60;;;0.30
68510;BMP180;55512;50.102;19.958;2023-03-04T00:50:01;98591.20;;;0.30
68510;BMP180;55512;50.102;19.958;2023-03-04T00:52:27;98591.40;;;0.30
68510;BMP180;55512;50.102;19.958;2023-03-04T00:54:53;98591.60;;;0.30
68510;BMP180;55512;50.102;19.958;2023-03-04T00:57:18;98586.40;;;0.20
68510;BMP180;55512;50.102;19.958;2023-03-04T00:59:44;98578.40;;;0.20
68510;BMP180;55512;50.102;19.958;2023-03-04T01:02:11;98569.80;;;0.20
68510;BMP180;55512;50.102;19.958;2023-03-04T01:04:37;98555.40;;;0.28
68510;BMP180;55512;50.102;19.958;2023-03-04T01:07:03;98549.60;;;0.20
68510;BMP180;55512;50.102;19.958;2023-03-04T01:09:29;98552.00;;;0.20
68510;BMP180;55512;50.102;19.958;2023-03-04T01:11:55;98545.80;;;0.20
68510;BMP180;55512;50.102;19.958;2023-03-04T01:14:21;98542.60;;;0.20
68510;BMP180;55512;50.102;19.958;2023-03-04T01:16:48;98533.00;;;0.20
68510;BMP180;55512;50.102;19.958;2023-03-04T01:19:13;98532.20;;;0.26
68510;BMP180;55512;50.102;19.958;2023-03-04T01:21:39;98538.40;;;0.30
68510;BMP180;55512;50.102;19.958;2023-03-04T01:24:04;98521.80;;;0.30
68510;BMP180;55512;50.102;19.958;2023-03-04T01:26:30;98517.00;;;0.30
68510;BMP180;55512;50.102;19.958;2023-03-04T01:28:55;98517.00;;;0.30
68510;BMP180;55512;50.102;19.958;2023-03-04T01:31:20;98512.20;;;0.30
68510;BMP180;55512;50.102;19.958;2023-03-04T01:33:46;98507.40;;;0.30
68510;BMP180;55512;50.102;19.958;2023-03-04T01:36:11;98507.20;;;0.34
68510;BMP180;55512;50.102;19.958;2023-03-04T01:38:37;98502.60;;;0.40
68510;BMP180;55512;50.102;19.958;2023-03-04T01:41:03;98504.00;;;0.34
68510;BMP180;55512;50.102;19.958;2023-03-04T01:43:30;98503.60;;;0.40
68510;BMP180;55512;50.102;19.958;2023-03-04T01:45:57;98498.20;;;0.40
68510;BMP180;55512;50.102;19.958;2023-03-04T01:48:29;98498.00;;;0.40
68510;BMP180;55512;50.102;19.958;2023-03-04T01:50:56;98489.40;;;0.36
68510;BMP180;55512;50.102;19.958;2023-03-04T01:53:26;98492.60;;;0.30
68510;BMP180;55512;50.102;19.958;2023-03-04T01:55:56;98492.40;;;0.32
68510;BMP180;55512;50.102;19.958;2023-03-04T01:58:29;98488.60;;;0.28
68510;BMP180;55512;50.102;19.958;2023-03-04T02:00:56;98488.60;;;0.22
68510;BMP180;55512;50.102;19.958;2023-03-04T02:03:23;98491.40;;;0.30
68510;BMP180;55512;50.102;19.958;2023-03-04T02:05:51;98484.20;;;0.30
68510;BMP180;55512;50.102;19.958;2023-03-04T02:08:21;98488.00;;;0.30
68510;BMP180;55512;50.102;19.958;2023-03-04T02:10:48;98479.20;;;0.30
68510;BMP180;55512;50.102;19.958;2023-03-04T02:13:15;98483.20;;;0.36
68510;BMP180;55512;50.102;19.958;2023-03-04T02:15:43;98477.00;;;0.30
68510;BMP180;55512;50.102;19.958;2023-03-04T02:18:20;98477.40;;;0.30
68510;BMP180;55512;50.102;19.958;2023-03-04T02:21:14;98472.40;;;0.30
68510;BMP180;55512;50.102;19.958;2023-03-04T02:24:16;98477.00;;;0.20
68510;BMP180;55512;50.102;19.958;2023-03-04T02:26:44;98478.40;;;0.26
68510;BMP180;55512;50.102;19.958;2023-03-04T02:29:14;98473.00;;;0.24
68510;BMP180;55512;50.102;19.958;2023-03-04T02:31:43;98470.20;;;0.22
68510;BMP180;55512;50.102;19.958;2023-03-04T02:34:20;98474.40;;;0.20
68510;BMP180;55512;50.102;19.958;2023-03-04T02:36:48;98467.20;;;0.20
68510;BMP180;55512;50.102;19.958;2023-03-04T02:41:46;98457.40;;;0.30
68510;BMP180;55512;50.102;19.958;2023-03-04T02:44:26;98455.40;;;0.30
68510;BMP180;55512;50.102;19.958;2023-03-04T02:46:53;98451.60;;;0.38
68510;BMP180;55512;50.102;19.958;2023-03-04T02:49:19;98456.00;;;0.40
68510;BMP180;55512;50.102;19.958;2023-03-04T02:51:46;98445.60;;;0.40
68510;BMP180;55512;50.102;19.958;2023-03-04T02:54:17;98431.00;;;0.40
68510;BMP180;55512;50.102;19.958;2023-03-04T02:56:56;98428.20;;;0.40
68510;BMP180;55512;50.102;19.958;2023-03-04T02:59:22;98420.40;;;0.40
68510;BMP180;55512;50.102;19.958;2023-03-04T03:01:48;98415.60;;;0.40
68510;BMP180;55512;50.102;19.958;2023-03-04T03:04:15;98408.60;;;0.40
68510;BMP180;55512;50.102;19.958;2023-03-04T03:06:40;98418.80;;;0.48
68510;BMP180;55512;50.102;19.958;2023-03-04T03:09:06;98418.20;;;0.46
68510;BMP180;55512;50.102;19.958;2023-03-04T03:11:33;98420.60;;;0.50
68510;BMP180;55512;50.102;19.958;2023-03-04T03:13:59;98423.00;;;0.48
68510;BMP180;55512;50.102;19.958;2023-03-04T03:16:24;98422.00;;;0.42
68510;BMP180;55512;50.102;19.958;2023-03-04T03:18:50;98413.20;;;0.50
68510;BMP180;55512;50.102;19.958;2023-03-04T03:21:16;98406.60;;;0.50
68510;BMP180;55512;50.102;19.958;2023-03-04T03:23:41;98408.60;;;0.50
68510;BMP180;55512;50.102;19.958;2023-03-04T03:26:08;98400.40;;;0.50
68510;BMP180;55512;50.102;19.958;2023-03-04T03:28:34;98400.00;;;0.50
68510;BMP180;55512;50.102;19.958;2023-03-04T03:30:59;98404.00;;;0.48
68510;BMP180;55512;50.102;19.958;2023-03-04T03:33:25;98399.60;;;0.50
68510;BMP180;55512;50.102;19.958;2023-03-04T03:35:50;98404.80;;;0.48
68510;BMP180;55512;50.102;19.958;2023-03-04T03:38:16;98414.60;;;0.44
68510;BMP180;55512;50.102;19.958;2023-03-04T03:40:41;98413.40;;;0.42
68510;BMP180;55512;50.102;19.958;2023-03-04T03:43:07;98411.40;;;0.44
68510;BMP180;55512;50.102;19.958;2023-03-04T03:45:33;98416.60;;;0.42
68510;BMP180;55512;50.102;19.958;2023-03-04T03:47:58;98406.00;;;0.40
68510;BMP180;55512;50.102;19.958;2023-03-04T03:50:23;98399.20;;;0.40
68510;BMP180;55512;50.102;19.958;2023-03-04T03:52:49;98397.20;;;0.42
68510;BMP180;55512;50.102;19.958;2023-03-04T03:55:14;98400.60;;;0.40
68510;BMP180;55512;50.102;19.958;2023-03-04T03:57:40;98400.80;;;0.42
68510;BMP180;55512;50.102;19.958;2023-03-04T04:00:07;98395.00;;;0.40
68510;BMP180;55512;50.102;19.958;2023-03-04T04:02:34;98403.20;;;0.48
68510;BMP180;55512;50.102;19.958;2023-03-04T04:04:59;98405.60;;;0.42
68510;BMP180;55512;50.102;19.958;2023-03-04T04:07:25;98404.20;;;0.40
68510;BMP180;55512;50.102;19.958;2023-03-04T04:09:51;98404.80;;;0.42
68510;BMP180;55512;50.102;19.958;2023-03-04T04:12:17;98401.80;;;0.40
68510;BMP180;55512;50.102;19.958;2023-03-04T04:14:43;98400.20;;;0.40
68510;BMP180;55512;50.102;19.958;2023-03-04T04:17:10;98391.80;;;0.36
68510;BMP180;55512;50.102;19.958;2023-03-04T04:19:35;98396.40;;;0.40
68510;BMP180;55512;50.102;19.958;2023-03-04T04:22:02;98397.60;;;0.40
68510;BMP180;55512;50.102;19.958;2023-03-04T04:24:28;98395.60;;;0.40
68510;BMP180;55512;50.102;19.958;2023-03-04T04:26:54;98406.20;;;0.40
68510;BMP180;55512;50.102;19.958;2023-03-04T04:29:19;98398.80;;;0.34
68510;BMP180;55512;50.102;19.958;2023-03-04T04:31:45;98398.40;;;0.30
68510;BMP180;55512;50.102;19.958;2023-03-04T04:34:10;98388.40;;;0.30
68510;BMP180;55512;50.102;19.958;2023-03-04T04:36:36;98392.40;;;0.38
68510;BMP180;55512;50.102;19.958;2023-03-04T04:39:02;98398.80;;;0.40
68510;BMP180;55512;50.102;19.958;2023-03-04T04:41:35;98390.80;;;0.30
68510;BMP180;55512;50.102;19.958;2023-03-04T04:44:00;98393.20;;;0.36
68510;BMP180;55512;50.102;19.958;2023-03-04T04:46:26;98387.40;;;0.34
68510;BMP180;55512;50.102;19.958;2023-03-04T04:48:51;98384.60;;;0.38
68510;BMP180;55512;50.102;19.958;2023-03-04T04:51:17;98389.00;;;0.36
68510;BMP180;55512;50.102;19.958;2023-03-04T04:53:43;98385.00;;;0.30
68510;BMP180;55512;50.102;19.958;2023-03-04T04:56:17;98380.00;;;0.30
68510;BMP180;55512;50.102;19.958;2023-03-04T04:58:44;98382.60;;;0.30
68510;BMP180;55512;50.102;19.958;2023-03-04T05:01:10;98383.60;;;0.34
68510;BMP180;55512;50.102;19.958;2023-03-04T05:03:36;98378.80;;;0.30
68510;BMP180;55512;50.102;19.958;2023-03-04T05:06:05;98375.60;;;0.30
68510;BMP180;55512;50.102;19.958;2023-03-04T05:08:31;98368.40;;;0.30
68510;BMP180;55512;50.102;19.958;2023-03-04T05:10:57;98382.80;;;0.30
68510;BMP180;55512;50.102;19.958;2023-03-04T05:13:23;98367.60;;;0.30
68510;BMP180;55512;50.102;19.958;2023-03-04T05:15:54;98368.80;;;0.30
68510;BMP180;55512;50.102;19.958;2023-03-04T05:18:22;98365.40;;;0.30
68510;BMP180;55512;50.102;19.958;2023-03-04T05:20:55;98368.00;;;0.30
68510;BMP180;55512;50.102;19.958;2023-03-04T05:23:22;98360.80;;;0.24
68510;BMP180;55512;50.102;19.958;2023-03-04T05:25:49;98372.60;;;0.20
68510;BMP180;55512;50.102;19.958;2023-03-04T05:28:15;98359.00;;;0.10
68510;BMP180;55512;50.102;19.958;2023-03-04T05:30:43;98360.00;;;0.10
68510;BMP180;55512;50.102;19.958;2023-03-04T05:33:10;98355.00;;;0.10
68510;BMP180;55512;50.102;19.958;2023-03-04T05:35:38;98361.60;;;0.06
68510;BMP180;55512;50.102;19.958;2023-03-04T05:38:06;98351.40;;;0.00
68510;BMP180;55512;50.102;19.958;2023-03-04T05:40:32;98358.20;;;0.00
68510;BMP180;55512;50.102;19.958;2023-03-04T05:42:58;98354.40;;;0.00
68510;BMP180;55512;50.102;19.958;2023-03-04T05:45:25;98354.60;;;0.00
68510;BMP180;55512;50.102;19.958;2023-03-04T05:47:51;98349.00;;;0.00
68510;BMP180;55512;50.102;19.958;2023-03-04T05:50:18;98338.20;;;-0.10
68510;BMP180;55512;50.102;19.958;2023-03-04T05:52:43;98340.80;;;-0.08
68510;BMP180;55512;50.102;19.958;2023-03-04T05:55:09;98345.20;;;0.00
68510;BMP180;55512;50.102;19.958;2023-03-04T05:57:35;98345.40;;;0.00
68510;BMP180;55512;50.102;19.958;2023-03-04T06:00:01;98342.20;;;0.00
68510;BMP180;55512;50.102;19.958;2023-03-04T06:02:26;98331.00;;;0.00
68510;BMP180;55512;50.102;19.958;2023-03-04T06:04:52;98332.00;;;0.00
68510;BMP180;55512;50.102;19.958;2023-03-04T06:07:17;98335.20;;;0.04
68510;BMP180;55512;50.102;19.958;2023-03-04T06:09:42;98337.00;;;0.10
68510;BMP180;55512;50.102;19.958;2023-03-04T06:12:11;98336.40;;;0.10
68510;BMP180;55512;50.102;19.958;2023-03-04T06:14:36;98342.80;;;0.14
68510;BMP180;55512;50.102;19.958;2023-03-04T06:17:02;98354.20;;;0.20
68510;BMP180;55512;50.102;19.958;2023-03-04T06:19:28;98347.00;;;0.20
68510;BMP180;55512;50.102;19.958;2023-03-04T06:21:53;98347.20;;;0.20
68510;BMP180;55512;50.102;19.958;2023-03-04T06:24:19;98362.40;;;0.20
68510;BMP180;55512;50.102;19.958;2023-03-04T06:26:44;98344.60;;;0.20
68510;BMP180;55512;50.102;19.958;2023-03-04T06:29:10;98356.40;;;0.20
68510;BMP180;55512;50.102;19.958;2023-03-04T06:31:36;98349.00;;;0.20
68510;BMP180;55512;50.102;19.958;2023-03-04T06:34:01;98353.40;;;0.20
68510;BMP180;55512;50.102;19.958;2023-03-04T06:36:26;98346.80;;;0.24
68510;BMP180;55512;50.102;19.958;2023-03-04T06:38:52;98349.80;;;0.30
68510;BMP180;55512;50.102;19.958;2023-03-04T06:41:17;98351.00;;;0.32
68510;BMP180;55512;50.102;19.958;2023-03-04T06:43:43;98355.00;;;0.30
68510;BMP180;55512;50.102;19.958;2023-03-04T06:46:09;98344.40;;;0.30
68510;BMP180;55512;50.102;19.958;2023-03-04T06:48:35;98343.60;;;0.38
68510;BMP180;55512;50.102;19.958;2023-03-04T06:51:07;98355.80;;;0.40
68510;BMP180;55512;50.102;19.958;2023-03-04T06:53:34;98349.80;;;0.40
68510;BMP180;55512;50.102;19.958;2023-03-04T06:56:00;98356.20;;;0.40
68510;BMP180;55512;50.102;19.958;2023-03-04T06:58:25;98350.60;;;0.30
68510;BMP180;55512;50.102;19.958;2023-03-04T07:00:51;98338.40;;;0.30
68510;BMP180;55512;50.102;19.958;2023-03-04T07:03:16;98360.80;;;0.40
68510;BMP180;55512;50.102;19.958;2023-03-04T07:05:42;98345.00;;;0.30
68510;BMP180;55512;50.102;19.958;2023-03-04T07:08:08;98351.60;;;0.30
68510;BMP180;55512;50.102;19.958;2023-03-04T07:10:33;98347.80;;;0.38
68510;BMP180;55512;50.102;19.958;2023-03-04T07:13:00;98357.00;;;0.40
68510;BMP180;55512;50.102;19.958;2023-03-04T07:15:26;98349.60;;;0.40
68510;BMP180;55512;50.102;19.958;2023-03-04T07:17:51;98361.60;;;0.40
68510;BMP180;55512;50.102;19.958;2023-03-04T07:20:18;98366.40;;;0.40
68510;BMP180;55512;50.102;19.958;2023-03-04T07:22:44;98361.00;;;0.40
68510;BMP180;55512;50.102;19.958;2023-03-04T07:25:10;98364.40;;;0.50
68510;BMP180;55512;50.102;19.958;2023-03-04T07:27:35;98373.20;;;0.50
68510;BMP180;55512;50.102;19.958;2023-03-04T07:30:04;98367.80;;;0.50
68510;BMP180;55512;50.102;19.958;2023-03-04T07:32:30;98374.00;;;0.58
68510;BMP180;55512;50.102;19.958;2023-03-04T07:34:58;98370.60;;;0.60
68510;BMP180;55512;50.102;19.958;2023-03-04T07:37:24;98375.20;;;0.60
68510;BMP180;55512;50.102;19.958;2023-03-04T07:39:49;98376.00;;;0.70
68510;BMP180;55512;50.102;19.958;2023-03-04T07:42:15;98376.80;;;0.70
68510;BMP180;55512;50.102;19.958;2023-03-04T07:44:40;98377.20;;;0.70
68510;BMP180;55512;50.102;19.958;2023-03-04T07:47:06;98389.60;;;0.70
68510;BMP180;55512;50.102;19.958;2023-03-04T07:49:31;98390.40;;;0.60
68510;BMP180;55512;50.102;19.958;2023-03-04T07:51:56;98385.80;;;0.50
68510;BMP180;55512;50.102;19.958;2023-03-04T07:54:22;98407.80;;;0.40
68510;BMP180;55512;50.102;19.958;2023-03-04T07:56:47;98401.80;;;0.30
68510;BMP180;55512;50.102;19.958;2023-03-04T07:59:13;98407.40;;;0.20
68510;BMP180;55512;50.102;19.958;2023-03-04T08:01:38;98417.80;;;0.20
68510;BMP180;55512;50.102;19.958;2023-03-04T08:04:06;98409.20;;;0.10
68510;BMP180;55512;50.102;19.958;2023-03-04T08:06:32;98410.40;;;0.10
68510;BMP180;55512;50.102;19.958;2023-03-04T08:09:05;98401.20;;;0.10
68510;BMP180;55512;50.102;19.958;2023-03-04T08:11:32;98396.00;;;0.10
68510;BMP180;55512;50.102;19.958;2023-03-04T08:13:58;98397.20;;;0.10
68510;BMP180;55512;50.102;19.958;2023-03-04T08:16:24;98402.60;;;0.10
68510;BMP180;55512;50.102;19.958;2023-03-04T08:18:57;98394.20;;;0.14
68510;BMP180;55512;50.102;19.958;2023-03-04T08:21:24;98417.80;;;0.20
68510;BMP180;55512;50.102;19.958;2023-03-04T08:23:50;98402.40;;;0.20
68510;BMP180;55512;50.102;19.958;2023-03-04T08:26:29;98403.60;;;0.20
68510;BMP180;55512;50.102;19.958;2023-03-04T08:28:56;98396.80;;;0.30
68510;BMP180;55512;50.102;19.958;2023-03-04T08:31:23;98407.60;;;0.30
68510;BMP180;55512;50.102;19.958;2023-03-04T08:33:49;98402.20;;;0.30
68510;BMP180;55512;50.102;19.958;2023-03-04T08:36:15;98405.60;;;0.30
68510;BMP180;55512;50.102;19.958;2023-03-04T08:38:40;98416.80;;;0.26
68510;BMP180;55512;50.102;19.958;2023-03-04T08:41:06;98401.80;;;0.20
68510;BMP180;55512;50.102;19.958;2023-03-04T08:43:32;98398.80;;;0.22
68510;BMP180;55512;50.102;19.958;2023-03-04T08:45:58;98390.80;;;0.20
68510;BMP180;55512;50.102;19.958;2023-03-04T08:48:24;98411.20;;;0.28
68510;BMP180;55512;50.102;19.958;2023-03-04T08:50:50;98412.00;;;0.30
68510;BMP180;55512;50.102;19.958;2023-03-04T08:53:16;98414.60;;;0.20
68510;BMP180;55512;50.102;19.958;2023-03-04T08:55:42;98406.40;;;0.20
68510;BMP180;55512;50.102;19.958;2023-03-04T08:58:09;98399.80;;;0.20
68510;BMP180;55512;50.102;19.958;2023-03-04T09:00:39;98403.80;;;0.30
68510;BMP180;55512;50.102;19.958;2023-03-04T09:03:06;98401.40;;;0.30
68510;BMP180;55512;50.102;19.958;2023-03-04T09:05:32;98399.20;;;0.30
68510;BMP180;55512;50.102;19.958;2023-03-04T09:07:57;98398.40;;;0.38
68510;BMP180;55512;50.102;19.958;2023-03-04T09:10:23;98400.80;;;0.40
68510;BMP180;55512;50.102;19.958;2023-03-04T09:12:49;98398.60;;;0.42
68510;BMP180;55512;50.102;19.958;2023-03-04T09:15:14;98405.00;;;0.50
68510;BMP180;55512;50.102;19.958;2023-03-04T09:17:40;98410.00;;;0.60
68510;BMP180;55512;50.102;19.958;2023-03-04T09:20:09;98422.40;;;0.60
68510;BMP180;55512;50.102;19.958;2023-03-04T09:22:37;98413.80;;;0.60
68510;BMP180;55512;50.102;19.958;2023-03-04T09:25:04;98419.80;;;0.60
68510;BMP180;55512;50.102;19.958;2023-03-04T09:27:29;98416.00;;;0.60
68510;BMP180;55512;50.102;19.958;2023-03-04T09:29:55;98415.00;;;0.64
68510;BMP180;55512;50.102;19.958;2023-03-04T09:32:20;98409.00;;;0.70
68510;BMP180;55512;50.102;19.958;2023-03-04T09:34:46;98406.60;;;0.70
68510;BMP180;55512;50.102;19.958;2023-03-04T09:37:11;98402.40;;;0.80
68510;BMP180;55512;50.102;19.958;2023-03-04T09:39:37;98406.40;;;0.74
68510;BMP180;55512;50.102;19.958;2023-03-04T09:42:05;98398.40;;;0.70
68510;BMP180;55512;50.102;19.958;2023-03-04T09:44:39;98395.20;;;0.80
68510;BMP180;55512;50.102;19.958;2023-03-04T09:47:12;98396.60;;;0.80
68510;BMP180;55512;50.102;19.958;2023-03-04T09:49:43;98405.80;;;0.80
68510;BMP180;55512;50.102;19.958;2023-03-04T09:52:32;98396.40;;;0.80
68510;BMP180;55512;50.102;19.958;2023-03-04T09:55:27;98400.60;;;0.80
68510;BMP180;55512;50.102;19.958;2023-03-04T10:01:02;98387.20;;;0.90
68510;BMP180;55512;50.102;19.958;2023-03-04T10:03:54;98386.20;;;0.90
68510;BMP180;55512;50.102;19.958;2023-03-04T10:06:22;98382.00;;;0.90
68510;BMP180;55512;50.102;19.958;2023-03-04T10:09:06;98397.60;;;1.00
68510;BMP180;55512;50.102;19.958;2023-03-04T10:11:45;98396.20;;;0.90
68510;BMP180;55512;50.102;19.958;2023-03-04T10:16:59;98404.80;;;0.98
68510;BMP180;55512;50.102;19.958;2023-03-04T10:20:11;98396.80;;;1.00
68510;BMP180;55512;50.102;19.958;2023-03-04T10:22:58;98384.20;;;1.00
68510;BMP180;55512;50.102;19.958;2023-03-04T10:25:32;98386.00;;;0.96
68510;BMP180;55512;50.102;19.958;2023-03-04T10:28:15;98385.80;;;0.98
68510;BMP180;55512;50.102;19.958;2023-03-04T10:31:20;98384.80;;;1.00
68510;BMP180;55512;50.102;19.958;2023-03-04T10:33:51;98380.60;;;1.00
68510;BMP180;55512;50.102;19.958;2023-03-04T10:36:37;98371.40;;;1.00
68510;BMP180;55512;50.102;19.958;2023-03-04T10:39:12;98374.60;;;1.00
68510;BMP180;55512;50.102;19.958;2023-03-04T10:41:45;98394.40;;;1.00
68510;BMP180;55512;50.102;19.958;2023-03-04T10:44:17;98368.80;;;1.00
68510;BMP180;55512;50.102;19.958;2023-03-04T10:46:48;98366.80;;;1.00
68510;BMP180;55512;50.102;19.958;2023-03-04T10:49:18;98368.60;;;1.00
68510;BMP180;55512;50.102;19.958;2023-03-04T10:51:51;98361.20;;;1.00
68510;BMP180;55512;50.102;19.958;2023-03-04T10:54:33;98358.80;;;1.10
68510;BMP180;55512;50.102;19.958;2023-03-04T10:57:04;98357.60;;;1.10
68510;BMP180;55512;50.102;19.958;2023-03-04T10:59:46;98353.20;;;1.10
68510;BMP180;55512;50.102;19.958;2023-03-04T11:02:34;98354.80;;;1.20
68510;BMP180;55512;50.102;19.958;2023-03-04T11:05:20;98351.60;;;1.20
68510;BMP180;55512;50.102;19.958;2023-03-04T11:07:58;98347.00;;;1.20
68510;BMP180;55512;50.102;19.958;2023-03-04T11:10:39;98347.80;;;1.20
68510;BMP180;55512;50.102;19.958;2023-03-04T11:16:02;98348.40;;;1.30
68510;BMP180;55512;50.102;19.958;2023-03-04T11:18:41;98346.20;;;1.30
68510;BMP180;55512;50.102;19.958;2023-03-04T11:21:17;98344.00;;;1.30
68510;BMP180;55512;50.102;19.958;2023-03-04T11:24:05;98343.80;;;1.30
68510;BMP180;55512;50.102;19.958;2023-03-04T11:26:41;98343.20;;;1.30
68510;BMP180;55512;50.102;19.958;2023-03-04T11:29:17;98339.60;;;1.30
68510;BMP180;55512;50.102;19.958;2023-03-04T11:32:07;98337.20;;;1.30
68510;BMP180;55512;50.102;19.958;2023-03-04T11:34:49;98326.60;;;1.30
68510;BMP180;55512;50.102;19.958;2023-03-04T11:37:43;98329.20;;;1.30
68510;BMP180;55512;50.102;19.958;2023-03-04T11:40:38;98324.00;;;1.30
68510;BMP180;55512;50.102;19.958;2023-03-04T11:43:36;98335.20;;;1.22
68510;BMP180;55512;50.102;19.958;2023-03-04T11:57:22;98301.60;;;1.14
68510;BMP180;55512;50.102;19.958;2023-03-04T12:00:23;98297.00;;;1.20
68510;BMP180;55512;50.102;19.958;2023-03-04T12:15:27;98297.60;;;1.10
68510;BMP180;55512;50.102;19.958;2023-03-04T12:18:12;98297.40;;;1.10
68510;BMP180;55512;50.102;19.958;2023-03-04T12:26:51;98295.20;;;1.02
68510;BMP180;55512;50.102;19.958;2023-03-04T12:49:43;98294.60;;;1.20
68510;BMP180;55512;50.102;19.958;2023-03-04T12:52:24;98288.20;;;1.20
68510;BMP180;55512;50.102;19.958;2023-03-04T12:55:01;98289.40;;;1.20
68510;BMP180;55512;50.102;19.958;2023-03-04T12:57:29;98288.00;;;1.20
68510;BMP180;55512;50.102;19.958;2023-03-04T13:12:23;98266.00;;;1.40
68510;BMP180;55512;50.102;19.958;2023-03-04T13:14:26;98261.80;;;1.40
68510;BMP180;55512;50.102;19.958;2023-03-04T13:17:05;98259.20;;;1.42
68510;BMP180;55512;50.102;19.958;2023-03-04T13:20:09;98259.20;;;1.50
68510;BMP180;55512;50.102;19.958;2023-03-04T13:25:33;98274.20;;;1.50
68510;BMP180;55512;50.102;19.958;2023-03-04T13:41:17;98262.00;;;1.60
68510;BMP180;55512;50.102;19.958;2023-03-04T13:43:54;98253.20;;;1.60
68510;BMP180;55512;50.102;19.958;2023-03-04T13:56:33;98242.40;;;1.80
68510;BMP180;55512;50.102;19.958;2023-03-04T14:04:25;98239.00;;;1.88
68510;BMP180;55512;50.102;19.958;2023-03-04T14:06:54;98234.80;;;1.90
68510;BMP180;55512;50.102;19.958;2023-03-04T14:09:32;98229.20;;;1.90
68510;BMP180;55512;50.102;19.958;2023-03-04T14:12:03;98235.40;;;1.90
68510;BMP180;55512;50.102;19.958;2023-03-04T14:14:41;98234.00;;;1.90
68510;BMP180;55512;50.102;19.958;2023-03-04T14:17:18;98230.20;;;1.90
68510;BMP180;55512;50.102;19.958;2023-03-04T14:19:47;98225.80;;;1.90
68510;BMP180;55512;50.102;19.958;2023-03-04T14:22:29;98225.20;;;1.90
68510;BMP180;55512;50.102;19.958;2023-03-04T14:27:37;98234.20;;;1.90
68510;BMP180;55512;50.102;19.958;2023-03-04T14:30:20;98230.80;;;1.90
68510;BMP180;55512;50.102;19.958;2023-03-04T14:32:46;98239.20;;;1.90
68510;BMP180;55512;50.102;19.958;2023-03-04T14:35:22;98235.40;;;1.90
68510;BMP180;55512;50.102;19.958;2023-03-04T14:38:02;98233.20;;;1.90
68510;BMP180;55512;50.102;19.958;2023-03-04T14:40:38;98244.40;;;1.90
68510;BMP180;55512;50.102;19.958;2023-03-04T14:43:15;98235.00;;;1.90
68510;BMP180;55512;50.102;19.958;2023-03-04T14:45:45;98233.40;;;1.90
68510;BMP180;55512;50.102;19.958;2023-03-04T14:48:28;98235.00;;;1.90
68510;BMP180;55512;50.102;19.958;2023-03-04T14:50:57;98232.00;;;1.90
68510;BMP180;55512;50.102;19.958;2023-03-04T14:53:26;98237.00;;;1.90
68510;BMP180;55512;50.102;19.958;2023-03-04T14:58:33;98224.40;;;1.90
68510;BMP180;55512;50.102;19.958;2023-03-04T15:01:28;98223.60;;;1.90
68510;BMP180;55512;50.102;19.958;2023-03-04T15:04:08;98228.60;;;1.90
68510;BMP180;55512;50.102;19.958;2023-03-04T15:06:48;98222.80;;;1.90
68510;BMP180;55512;50.102;19.958;2023-03-04T15:09:22;98211.00;;;1.90
68510;BMP180;55512;50.102;19.958;2023-03-04T15:11:58;98219.60;;;1.92
68510;BMP180;55512;50.102;19.958;2023-03-04T15:14:44;98217.40;;;1.98
68510;BMP180;55512;50.102;19.958;2023-03-04T15:17:34;98215.80;;;1.96
68510;BMP180;55512;50.102;19.958;2023-03-04T15:25:16;98219.20;;;1.90
68510;BMP180;55512;50.102;19.958;2023-03-04T15:27:45;98218.20;;;1.94
68510;BMP180;55512;50.102;19.958;2023-03-04T15:30:26;98217.60;;;2.00
68510;BMP180;55512;50.102;19.958;2023-03-04T15:32:56;98225.20;;;2.00
68510;BMP180;55512;50.102;19.958;2023-03-04T15:35:24;98220.40;;;2.00
68510;BMP180;55512;50.102;19.958;2023-03-04T15:37:51;98217.00;;;2.00
68510;BMP180;55512;50.102;19.958;2023-03-04T15:40:39;98212.00;;;2.00
68510;BMP180;55512;50.102;19.958;2023-03-04T15:43:10;98217.00;;;2.00
68510;BMP180;55512;50.102;19.958;2023-03-04T15:45:38;98217.40;;;2.00
68510;BMP180;55512;50.102;19.958;2023-03-04T15:48:08;98217.20;;;2.00
68510;BMP180;55512;50.102;19.958;2023-03-04T15:56:40;98213.00;;;2.10
68510;BMP180;55512;50.102;19.958;2023-03-04T15:59:11;98212.40;;;2.10
68510;BMP180;55512;50.102;19.958;2023-03-04T16:01:38;98212.80;;;2.18
68510;BMP180;55512;50.102;19.958;2023-03-04T16:04:04;98201.00;;;2.20
68510;BMP180;55512;50.102;19.958;2023-03-04T16:06:31;98194.00;;;2.20
68510;BMP180;55512;50.102;19.958;2023-03-04T16:08:58;98198.20;;;2.22
68510;BMP180;55512;50.102;19.958;2023-03-04T16:11:27;98199.80;;;2.28
68510;BMP180;55512;50.102;19.958;2023-03-04T16:13:54;98197.20;;;2.30
68510;BMP180;55512;50.102;19.958;2023-03-04T16:16:21;98196.80;;;2.30
68510;BMP180;55512;50.102;19.958;2023-03-04T16:18:46;98217.20;;;2.30
68510;BMP180;55512;50.102;19.958;2023-03-04T16:21:18;98204.20;;;2.30
68510;BMP180;55512;50.102;19.958;2023-03-04T16:23:47;98199.00;;;2.30
68510;BMP180;55512;50.102;19.958;2023-03-04T16:26:22;98212.80;;;2.40